createdAt,value
2023-10-26T00:01:34.065Z,2.90
2023-10-26T00:04:02.334Z,2.43
2023-10-26T00:06:30.787Z,2.67
2023-10-26T00:08:59.268Z,2.23
2023-10-26T00:11:31.562Z,2.33
2023-10-26T00:14:00.263Z,2.53
2023-10-26T00:16:28.562Z,2.60
2023-10-26T00:18:58.244Z,2.60
2023-10-26T00:21:26.701Z,2.63
2023-10-26T00:23:55.071Z,2.83
2023-10-26T00:26:23.495Z,2.23
2023-10-26T00:28:53.239Z,2.40
2023-10-26T00:31:21.640Z,2.30
2023-10-26T00:33:50.403Z,2.50
2023-10-26T00:36:18.956Z,2.57
2023-10-26T00:38:47.317Z,2.20
2023-10-26T00:41:15.583Z,2.53
2023-10-26T00:43:44.013Z,2.47
2023-10-26T00:46:13.698Z,2.60
2023-10-26T00:48:42.445Z,2.50
2023-10-26T00:51:11.201Z,2.50
2023-10-26T00:53:41.748Z,1.97
2023-10-26T00:56:13.161Z,2.47
2023-10-26T00:58:42.022Z,2.10
2023-10-26T01:01:10.445Z,2.03
2023-10-26T01:03:42.167Z,2.17
2023-10-26T01:06:10.942Z,1.77
2023-10-26T01:08:39.571Z,2.03
2023-10-26T01:11:08.930Z,2.17
2023-10-26T01:13:37.218Z,1.80
2023-10-26T01:16:06.078Z,1.70
2023-10-26T01:18:34.830Z,2.03
2023-10-26T01:21:04.785Z,1.77
2023-10-26T01:23:34.575Z,2.27
2023-10-26T01:26:02.885Z,2.07
2023-10-26T01:28:31.431Z,1.33
2023-10-26T01:31:00.338Z,1.90
2023-10-26T01:33:29.003Z,2.10
2023-10-26T01:35:57.523Z,1.80
2023-10-26T01:38:26.109Z,1.40
2023-10-26T01:40:56.162Z,1.33
2023-10-26T01:43:25.793Z,2.00
2023-10-26T01:45:54.236Z,1.33
2023-10-26T01:48:22.880Z,1.73
2023-10-26T01:50:51.623Z,1.47
2023-10-26T01:53:20.090Z,1.53
2023-10-26T01:55:48.398Z,1.53
2023-10-26T01:58:18.316Z,1.07
2023-10-26T02:00:49.637Z,1.20
2023-10-26T02:03:19.735Z,1.60
2023-10-26T02:05:49.030Z,1.20
2023-10-26T02:08:17.547Z,1.63
2023-10-26T02:10:45.869Z,1.50
2023-10-26T02:13:14.434Z,1.63
2023-10-26T02:15:44.148Z,1.60
2023-10-26T02:18:12.440Z,1.10
2023-10-26T02:20:40.778Z,1.80
2023-10-26T02:23:09.038Z,1.90
2023-10-26T02:25:37.256Z,2.00
2023-10-26T02:28:05.892Z,1.63
2023-10-26T02:30:34.102Z,1.83
2023-10-26T02:33:03.899Z,1.53
2023-10-26T02:35:32.225Z,1.73
2023-10-26T02:38:00.478Z,1.60
2023-10-26T02:40:29.034Z,1.60
2023-10-26T02:42:57.437Z,1.83
2023-10-26T02:45:26.538Z,2.30
2023-10-26T02:47:55.073Z,2.20
2023-10-26T02:50:24.883Z,1.90
2023-10-26T02:52:53.619Z,2.07
2023-10-26T02:55:22.055Z,1.70
2023-10-26T02:57:51.466Z,2.00
2023-10-26T03:00:20.265Z,1.90
2023-10-26T03:02:48.968Z,1.87
2023-10-26T03:05:17.798Z,2.17
2023-10-26T03:07:48.982Z,1.90
2023-10-26T03:10:17.458Z,1.97
2023-10-26T03:12:48.393Z,2.00
2023-10-26T03:15:18.176Z,2.00
2023-10-26T03:17:46.716Z,1.87
2023-10-26T03:20:15.041Z,1.83
2023-10-26T03:22:43.343Z,1.40
2023-10-26T03:25:15.389Z,2.00
2023-10-26T03:27:44.048Z,1.43
2023-10-26T03:30:12.918Z,1.40
2023-10-26T03:32:41.188Z,1.50
2023-10-26T03:35:10.720Z,1.73
2023-10-26T03:37:39.276Z,1.50
2023-10-26T03:40:08.880Z,1.47
2023-10-26T03:42:38.542Z,1.60
2023-10-26T03:45:07.557Z,1.60
2023-10-26T03:47:35.958Z,1.53
2023-10-26T03:50:04.238Z,1.63
2023-10-26T03:52:32.482Z,1.47
2023-10-26T03:55:00.901Z,1.63
2023-10-26T03:57:29.285Z,1.67
2023-10-26T03:59:58.930Z,1.57
2023-10-26T04:02:27.226Z,1.97
2023-10-26T04:04:55.461Z,1.50
2023-10-26T04:07:25.088Z,1.27
2023-10-26T04:09:53.393Z,1.50
2023-10-26T04:12:21.754Z,1.43
2023-10-26T04:14:50.016Z,1.93
2023-10-26T04:17:19.842Z,1.87
2023-10-26T04:19:48.053Z,1.60
2023-10-26T04:22:16.401Z,1.57
2023-10-26T04:24:45.153Z,1.60
2023-10-26T04:27:13.660Z,1.70
2023-10-26T04:29:42.065Z,1.97
2023-10-26T04:32:10.590Z,2.00
2023-10-26T04:34:45.437Z,1.60
2023-10-26T04:37:14.386Z,1.07
2023-10-26T04:39:45.000Z,1.03
2023-10-26T04:42:14.274Z,1.30
2023-10-26T04:44:43.283Z,1.23
2023-10-26T04:47:12.112Z,1.43
2023-10-26T04:49:42.784Z,1.13
2023-10-26T04:52:15.567Z,1.40
2023-10-26T04:54:43.948Z,1.57
2023-10-26T04:57:12.335Z,1.60
2023-10-26T04:59:40.577Z,1.70
2023-10-26T05:02:09.123Z,2.00
2023-10-26T05:04:37.428Z,2.07
2023-10-26T05:07:07.304Z,1.50
2023-10-26T05:09:36.218Z,1.20
2023-10-26T05:12:04.691Z,1.23
2023-10-26T05:14:33.481Z,1.37
2023-10-26T05:17:01.675Z,1.30
2023-10-26T05:19:30.115Z,1.30
2023-10-26T05:21:58.620Z,1.10
2023-10-26T05:24:29.371Z,1.33
2023-10-26T05:26:58.009Z,1.40
2023-10-26T05:29:26.482Z,1.67
2023-10-26T05:31:57.295Z,1.63
2023-10-26T05:34:25.627Z,1.30
2023-10-26T05:36:53.961Z,1.37
2023-10-26T05:39:22.331Z,2.20
2023-10-26T05:41:52.966Z,1.50
2023-10-26T05:44:21.535Z,1.63
2023-10-26T05:46:50.600Z,1.90
2023-10-26T05:49:18.951Z,2.10
2023-10-26T05:51:47.242Z,1.97
2023-10-26T05:54:15.665Z,1.90
2023-10-26T05:56:43.877Z,1.73
2023-10-26T05:59:13.644Z,2.30
2023-10-26T06:01:41.896Z,1.60
2023-10-26T06:04:10.286Z,1.90
2023-10-26T06:06:38.849Z,1.57
2023-10-26T06:09:08.749Z,2.37
2023-10-26T06:11:37.598Z,1.33
2023-10-26T06:14:06.575Z,1.30
2023-10-26T06:16:36.540Z,1.73
2023-10-26T06:19:05.228Z,1.67
2023-10-26T06:21:34.288Z,2.17
2023-10-26T06:24:02.885Z,1.40
2023-10-26T06:26:31.284Z,1.50
2023-10-26T06:28:59.746Z,1.60
2023-10-26T06:31:28.010Z,1.73
2023-10-26T06:33:57.862Z,1.80
2023-10-26T06:36:26.188Z,2.00
2023-10-26T06:38:55.588Z,1.90
2023-10-26T06:41:25.096Z,1.73
2023-10-26T06:43:53.404Z,2.07
2023-10-26T06:46:21.879Z,2.23
2023-10-26T06:48:50.631Z,2.00
2023-10-26T06:51:20.911Z,2.10
2023-10-26T06:53:49.211Z,1.90
2023-10-26T06:56:17.518Z,1.57
2023-10-26T06:58:45.798Z,1.73
2023-10-26T07:01:20.378Z,1.50
2023-10-26T07:03:50.201Z,1.83
2023-10-26T07:06:20.374Z,1.87
2023-10-26T07:08:53.942Z,2.03
2023-10-26T07:11:24.881Z,2.40
2023-10-26T07:13:53.195Z,2.50
2023-10-26T07:16:21.656Z,3.03
2023-10-26T07:18:50.534Z,2.70
2023-10-26T07:21:20.297Z,2.80
2023-10-26T07:23:48.584Z,2.87
2023-10-26T07:26:19.096Z,2.70
2023-10-26T07:28:47.411Z,3.03
2023-10-26T07:31:20.770Z,3.10
2023-10-26T07:33:49.304Z,2.67
2023-10-26T07:36:17.923Z,2.60
2023-10-26T07:38:47.582Z,2.77
2023-10-26T07:42:06.294Z,2.40
2023-10-26T07:44:24.023Z,2.33
2023-10-26T07:46:52.529Z,2.47
2023-10-26T07:49:20.812Z,3.03
2023-10-26T07:51:50.603Z,2.57
2023-10-26T07:54:20.300Z,3.15
2023-10-26T07:56:48.489Z,3.03
2023-10-26T07:59:16.769Z,2.65
2023-10-26T08:01:45.753Z,2.80
2023-10-26T08:04:14.892Z,2.50
2023-10-26T08:06:43.117Z,2.65
2023-10-26T08:09:11.338Z,2.75
2023-10-26T08:11:41.684Z,2.45
2023-10-26T08:14:41.169Z,2.35
2023-10-26T08:16:59.418Z,2.30
2023-10-26T08:19:28.311Z,2.60
2023-10-26T08:21:56.650Z,2.80
2023-10-26T08:24:24.886Z,1.95
2023-10-26T08:26:55.080Z,2.00
2023-10-26T08:29:28.256Z,2.17
2023-10-26T08:31:57.768Z,2.33
2023-10-26T08:34:27.005Z,2.10
2023-10-26T08:39:26.384Z,1.95
2023-10-26T08:41:59.211Z,2.17
2023-10-26T08:44:27.882Z,2.00
2023-10-26T08:47:00.957Z,1.63
2023-10-26T08:49:30.468Z,1.88
2023-10-26T08:51:58.889Z,1.83
2023-10-26T08:54:28.410Z,1.67
2023-10-26T08:56:58.380Z,1.67
2023-10-26T08:59:29.898Z,1.50
2023-10-26T09:01:58.326Z,1.50
2023-10-26T09:04:26.899Z,1.67
2023-10-26T09:06:55.307Z,1.13
2023-10-26T09:09:24.053Z,1.58
2023-10-26T09:11:52.492Z,1.58
2023-10-26T09:14:23.861Z,1.42
2023-10-26T09:16:54.129Z,1.15
2023-10-26T09:19:23.250Z,1.27
2023-10-26T09:21:53.768Z,1.30
2023-10-26T09:24:25.979Z,1.45
2023-10-26T09:26:55.217Z,1.65
2023-10-26T09:29:37.384Z,1.55
2023-10-26T09:32:06.397Z,1.20
2023-10-26T09:34:42.667Z,1.33
2023-10-26T09:37:12.896Z,0.88
2023-10-26T09:39:42.950Z,1.30
2023-10-26T09:42:12.809Z,1.77
2023-10-26T09:44:43.023Z,1.40
2023-10-26T09:47:12.280Z,1.35
2023-10-26T09:49:40.871Z,1.25
2023-10-26T09:52:09.124Z,0.88
2023-10-26T09:54:40.297Z,1.05
2023-10-26T09:57:16.398Z,1.02
2023-10-26T09:59:47.033Z,1.00
2023-10-26T10:02:16.582Z,1.00
2023-10-26T10:04:46.282Z,0.90
2023-10-26T10:07:19.155Z,0.80
2023-10-26T10:10:06.930Z,0.60
2023-10-26T10:12:37.191Z,0.90
2023-10-26T10:15:36.122Z,0.98
2023-10-26T10:18:08.550Z,0.68
2023-10-26T10:20:38.367Z,0.70
2023-10-26T10:23:06.839Z,0.68
2023-10-26T10:26:05.673Z,0.60
2023-10-26T10:28:52.361Z,0.40
2023-10-26T10:31:43.653Z,0.70
2023-10-26T10:34:12.458Z,0.88
2023-10-26T10:37:10.644Z,0.70
2023-10-26T10:39:39.137Z,0.50
2023-10-26T10:42:12.080Z,0.65
2023-10-26T10:44:42.924Z,0.50
2023-10-26T10:47:13.287Z,0.65
2023-10-26T10:49:41.481Z,0.55
2023-10-26T10:52:16.582Z,0.52
2023-10-26T10:54:56.705Z,0.50
2023-10-26T10:57:33.269Z,0.55
2023-10-26T11:00:01.731Z,0.40
2023-10-26T11:02:31.987Z,0.50
2023-10-26T11:05:17.776Z,0.60
2023-10-26T11:07:48.390Z,0.50
2023-10-26T11:10:16.914Z,0.90
2023-10-26T11:12:52.610Z,0.82
2023-10-26T11:15:21.280Z,0.80
2023-10-26T11:17:51.595Z,0.90
2023-10-26T11:20:36.081Z,0.70
2023-10-26T11:23:04.485Z,0.80
2023-10-26T11:25:32.895Z,0.50
2023-10-26T11:28:01.702Z,0.60
2023-10-26T11:30:30.272Z,0.73
2023-10-26T11:33:00.877Z,0.57
2023-10-26T11:35:29.420Z,0.70
2023-10-26T11:38:06.941Z,0.95
2023-10-26T11:40:35.385Z,0.80
2023-10-26T11:43:05.493Z,0.70
2023-10-26T11:45:50.139Z,0.70
2023-10-26T11:48:30.770Z,0.77
2023-10-26T11:50:59.436Z,0.82
2023-10-26T11:53:28.466Z,0.73
2023-10-26T11:55:56.810Z,0.88
2023-10-26T11:58:25.244Z,1.10
2023-10-26T12:00:53.558Z,0.85
2023-10-26T12:03:22.564Z,0.80
2023-10-26T12:05:52.362Z,0.68
2023-10-26T12:08:20.672Z,0.70
2023-10-26T12:10:49.040Z,0.75
2023-10-26T12:13:17.385Z,0.82
2023-10-26T12:15:45.666Z,0.88
2023-10-26T12:18:13.988Z,0.60
2023-10-26T12:20:42.188Z,0.88
2023-10-26T12:23:12.014Z,0.77
2023-10-26T12:25:41.469Z,0.93
2023-10-26T12:28:21.023Z,0.70
2023-10-26T12:30:52.508Z,0.60
2023-10-26T12:33:21.219Z,0.70
2023-10-26T12:35:50.202Z,0.75
2023-10-26T12:38:21.039Z,0.80
2023-10-26T12:40:49.806Z,0.75
2023-10-26T12:43:18.294Z,0.70
2023-10-26T12:45:46.636Z,0.50
2023-10-26T12:48:15.035Z,0.65
2023-10-26T12:50:43.456Z,0.70
2023-10-26T12:53:12.063Z,0.60
2023-10-26T12:55:41.893Z,0.77
2023-10-26T12:58:10.320Z,0.70
2023-10-26T13:00:38.716Z,0.93
2023-10-26T13:03:07.144Z,0.77
2023-10-26T13:05:35.460Z,0.98
2023-10-26T13:08:04.309Z,0.90
2023-10-26T13:10:32.852Z,0.80
2023-10-26T13:13:02.661Z,0.75
2023-10-26T13:15:30.991Z,0.57
2023-10-26T13:17:59.412Z,0.63
2023-10-26T13:20:27.810Z,0.47
2023-10-26T13:22:56.027Z,0.95
2023-10-26T13:25:25.309Z,0.60
2023-10-26T13:27:53.781Z,0.80
2023-10-26T13:30:23.679Z,0.80
2023-10-26T13:32:52.001Z,1.05
2023-10-26T13:35:20.320Z,0.98
2023-10-26T13:37:48.835Z,0.75
2023-10-26T13:40:17.013Z,0.98
2023-10-26T13:42:45.379Z,0.88
2023-10-26T13:45:16.034Z,0.82
2023-10-26T13:47:45.744Z,0.63
2023-10-26T13:50:14.141Z,0.75
2023-10-26T13:52:42.437Z,0.63
2023-10-26T13:55:11.061Z,0.65
2023-10-26T13:57:39.474Z,0.88
2023-10-26T14:00:10.068Z,0.93
2023-10-26T14:02:38.416Z,0.50
2023-10-26T14:05:28.826Z,0.88
2023-10-26T14:07:58.040Z,0.95
2023-10-26T14:10:26.743Z,0.80
2023-10-26T14:12:55.076Z,0.80
2023-10-26T14:15:23.465Z,0.77
2023-10-26T14:17:51.709Z,0.63
2023-10-26T14:20:21.406Z,0.70
2023-10-26T14:22:49.720Z,0.57
2023-10-26T14:25:17.996Z,0.52
2023-10-26T14:27:46.341Z,0.70
2023-10-26T14:30:14.979Z,0.80
2023-10-26T14:32:43.251Z,0.50
2023-10-26T14:35:11.439Z,0.63
2023-10-26T14:37:41.133Z,0.63
2023-10-26T14:40:10.273Z,0.77
2023-10-26T14:42:38.691Z,0.68
2023-10-26T14:45:08.113Z,0.80
2023-10-26T14:47:36.367Z,1.55
2023-10-26T14:50:05.176Z,1.48
2023-10-26T14:52:33.379Z,1.58
2023-10-26T14:55:04.241Z,3.03
2023-10-26T14:57:32.510Z,4.10
2023-10-26T15:00:00.870Z,5.00
2023-10-26T15:02:29.135Z,1.90
2023-10-26T15:04:57.541Z,0.80
2023-10-26T15:07:25.762Z,0.73
2023-10-26T15:10:20.455Z,0.70
2023-10-26T15:12:43.709Z,0.70
2023-10-26T15:15:12.153Z,0.50
2023-10-26T15:17:40.344Z,0.60
2023-10-26T15:20:09.900Z,1.00
2023-10-26T15:22:38.272Z,0.85
2023-10-26T15:25:07.176Z,0.77
2023-10-26T15:27:35.396Z,0.80
2023-10-26T15:30:05.720Z,0.63
2023-10-26T15:32:34.023Z,0.60
2023-10-26T15:35:02.291Z,0.90
2023-10-26T15:37:30.612Z,1.05
2023-10-26T15:39:59.064Z,1.85
2023-10-26T15:42:27.318Z,2.17
2023-10-26T15:44:56.001Z,3.75
2023-10-26T15:47:25.824Z,1.40
2023-10-26T15:49:54.218Z,0.90
2023-10-26T15:52:22.821Z,0.88
2023-10-26T15:54:51.051Z,1.20
2023-10-26T15:57:20.482Z,1.10
2023-10-26T15:59:48.814Z,1.23
2023-10-26T16:02:17.087Z,1.27
2023-10-26T16:04:46.995Z,1.70
2023-10-26T16:07:15.156Z,1.67
2023-10-26T16:09:45.482Z,1.02
2023-10-26T16:12:13.947Z,0.82
2023-10-26T16:14:42.447Z,1.45
2023-10-26T16:17:09.728Z,1.27
2023-10-26T16:19:37.968Z,1.23
2023-10-26T16:22:09.105Z,1.70
2023-10-26T16:24:38.205Z,1.20
2023-10-26T16:27:06.762Z,0.90
2023-10-26T16:29:34.973Z,1.42
2023-10-26T16:32:04.144Z,2.85
2023-10-26T16:34:32.367Z,1.80
2023-10-26T16:37:00.667Z,1.85
2023-10-26T16:39:30.552Z,2.28
2023-10-26T16:42:01.137Z,2.85
2023-10-26T16:44:29.722Z,3.10
2023-10-26T16:46:57.955Z,3.05
2023-10-26T16:49:27.232Z,1.38
2023-10-26T16:51:56.156Z,1.73
2023-10-26T16:54:25.584Z,1.20
2023-10-26T16:56:55.220Z,2.05
2023-10-26T16:59:23.399Z,2.78
2023-10-26T17:01:51.596Z,3.20
2023-10-26T17:04:19.843Z,3.10
2023-10-26T17:06:48.066Z,2.42
2023-10-26T17:09:16.295Z,2.47
2023-10-26T17:11:44.560Z,2.40
2023-10-26T17:14:14.186Z,2.65
2023-10-26T17:16:42.612Z,1.75
2023-10-26T17:19:11.279Z,2.25
2023-10-26T17:21:39.502Z,1.80
2023-10-26T17:24:09.238Z,2.10
2023-10-26T17:26:37.579Z,2.05
2023-10-26T17:29:05.865Z,1.85
2023-10-26T17:31:35.662Z,2.35
2023-10-26T17:34:04.024Z,2.75
2023-10-26T17:36:32.715Z,3.92
2023-10-26T17:39:01.104Z,3.78
2023-10-26T17:41:29.291Z,3.40
2023-10-26T17:43:57.478Z,3.42
2023-10-26T17:46:25.812Z,3.20
2023-10-26T17:48:55.555Z,6.87
2023-10-26T17:51:24.723Z,6.07
2023-10-26T17:53:54.660Z,5.65
2023-10-26T17:56:23.151Z,4.70
2023-10-26T17:58:51.398Z,4.40
2023-10-26T18:01:19.785Z,4.47
2023-10-26T18:03:48.074Z,3.80
2023-10-26T18:06:17.924Z,3.75
2023-10-26T18:08:46.162Z,3.45
2023-10-26T18:11:14.406Z,2.17
2023-10-26T18:13:42.674Z,3.03
2023-10-26T18:16:11.107Z,2.73
2023-10-26T18:18:40.331Z,2.42
2023-10-26T18:21:10.180Z,2.72
2023-10-26T18:23:39.806Z,3.15
2023-10-26T18:26:09.890Z,2.70
2023-10-26T18:28:39.661Z,2.67
2023-10-26T18:31:09.952Z,3.70
2023-10-26T18:33:38.471Z,3.23
2023-10-26T18:36:08.875Z,2.78
2023-10-26T18:38:37.688Z,2.73
2023-10-26T18:41:07.686Z,3.17
2023-10-26T18:43:36.465Z,3.13
2023-10-26T18:46:06.957Z,2.43
2023-10-26T18:48:36.324Z,2.30
2023-10-26T18:51:05.183Z,2.00
2023-10-26T18:53:33.516Z,1.80
2023-10-26T18:56:02.012Z,1.90
2023-10-26T18:58:33.954Z,2.37
2023-10-26T19:01:03.030Z,2.60
2023-10-26T19:03:31.899Z,2.25
2023-10-26T19:06:00.162Z,2.53
2023-10-26T19:08:29.173Z,2.00
2023-10-26T19:10:57.834Z,1.87
2023-10-26T19:13:28.784Z,2.03
2023-10-26T19:16:00.275Z,1.90
2023-10-26T19:18:28.639Z,1.80
2023-10-26T19:20:56.978Z,2.58
2023-10-26T19:23:25.204Z,2.83
2023-10-26T19:25:53.335Z,2.40
2023-10-26T19:28:22.667Z,2.50
2023-10-26T19:30:52.134Z,2.17
2023-10-26T19:33:21.846Z,2.70
2023-10-26T19:35:50.122Z,2.60
2023-10-26T19:38:21.220Z,2.15
2023-10-26T19:40:49.511Z,2.77
2023-10-26T19:43:18.079Z,2.42
2023-10-26T19:45:46.405Z,2.80
2023-10-26T19:48:15.421Z,2.70
2023-10-26T19:50:45.070Z,3.00
2023-10-26T19:53:13.549Z,1.73
2023-10-26T19:55:41.918Z,1.20
2023-10-26T19:58:10.294Z,2.00
2023-10-26T20:00:38.522Z,1.60
2023-10-26T20:03:08.174Z,1.73
2023-10-26T20:05:36.803Z,1.97
2023-10-26T20:08:06.793Z,1.70
2023-10-26T20:10:35.766Z,2.03
2023-10-26T20:13:04.274Z,1.70
2023-10-26T20:15:34.024Z,2.30
2023-10-26T20:18:02.481Z,2.13
2023-10-26T20:20:31.728Z,2.33
2023-10-26T20:23:01.037Z,2.30
2023-10-26T20:25:30.692Z,2.10
2023-10-26T20:27:59.155Z,2.50
2023-10-26T20:30:27.493Z,1.83
2023-10-26T20:32:57.889Z,1.63
2023-10-26T20:35:26.559Z,1.80
2023-10-26T20:37:55.093Z,1.83
2023-10-26T20:40:23.491Z,1.80
2023-10-26T20:42:53.332Z,2.00
2023-10-26T20:45:22.816Z,1.90
2023-10-26T20:47:51.133Z,1.57
2023-10-26T20:50:19.612Z,1.70
2023-10-26T20:52:48.059Z,1.80
2023-10-26T20:55:17.128Z,2.30
2023-10-26T20:57:45.700Z,1.50
2023-10-26T21:00:17.942Z,1.90
2023-10-26T21:02:46.133Z,1.90
2023-10-26T21:05:14.376Z,2.05
2023-10-26T21:07:42.728Z,1.90
2023-10-26T21:10:11.833Z,1.73
2023-10-26T21:22:37.315Z,2.30
2023-10-26T21:27:34.543Z,2.10
2023-10-26T21:32:30.927Z,1.70
2023-10-26T21:35:03.185Z,2.00
2023-10-26T21:37:33.059Z,1.70
2023-10-26T21:40:06.175Z,2.23
2023-10-26T21:42:34.912Z,2.03
2023-10-26T21:45:04.959Z,1.90
2023-10-26T21:47:34.198Z,2.33
2023-10-26T21:50:04.123Z,1.90
2023-10-26T21:52:33.336Z,2.93
2023-10-26T21:55:01.557Z,2.50
2023-10-26T21:57:32.179Z,2.90
2023-10-26T22:00:00.370Z,2.10
2023-10-26T22:02:28.543Z,2.60
2023-10-26T22:04:58.027Z,2.30
2023-10-26T22:07:27.708Z,2.33
2023-10-26T22:09:56.375Z,2.60
2023-10-26T22:12:24.967Z,2.67
2023-10-26T22:14:53.847Z,1.90
2023-10-26T22:17:22.205Z,2.40
2023-10-26T22:19:51.867Z,2.03
2023-10-26T22:22:21.445Z,1.87
2023-10-26T22:24:51.525Z,2.07
2023-10-26T22:27:21.556Z,1.73
2023-10-26T22:29:49.959Z,2.17
2023-10-26T22:32:18.169Z,2.27
2023-10-26T22:34:46.854Z,2.00
2023-10-26T22:37:15.246Z,1.93
2023-10-26T22:39:43.989Z,1.50
2023-10-26T22:42:14.069Z,2.07
2023-10-26T22:44:42.286Z,2.53
2023-10-26T22:47:10.678Z,2.80
2023-10-26T22:49:39.001Z,2.70
2023-10-26T22:52:07.998Z,2.67
2023-10-26T22:54:36.327Z,2.93
2023-10-26T22:57:05.056Z,3.20
2023-10-26T22:59:34.701Z,3.17
2023-10-26T23:02:02.802Z,2.77
2023-10-26T23:04:31.662Z,3.20
2023-10-26T23:07:00.054Z,2.97
2023-10-26T23:09:28.392Z,2.93
2023-10-26T23:11:56.547Z,2.60
2023-10-26T23:14:25.785Z,2.47
2023-10-26T23:16:55.397Z,3.20
2023-10-26T23:19:23.712Z,2.40
2023-10-26T23:21:51.916Z,2.67
2023-10-26T23:24:20.908Z,2.67
2023-10-26T23:26:49.309Z,2.30
2023-10-26T23:29:17.538Z,2.17
2023-10-26T23:31:45.800Z,2.17
2023-10-26T23:34:15.461Z,1.90
2023-10-26T23:36:44.969Z,2.00
2023-10-26T23:39:13.138Z,1.67
2023-10-26T23:41:41.583Z,2.13
2023-10-26T23:44:10.147Z,2.20
2023-10-26T23:46:38.305Z,2.07
2023-10-26T23:49:06.638Z,2.17
2023-10-26T23:51:36.281Z,2.40
2023-10-26T23:54:04.511Z,1.90
2023-10-26T23:56:32.732Z,2.53
2023-10-26T23:59:03.412Z,2.10
